Andover, New Hampshire
Current Conditions -  °F | °C
As of 4:15 AM on Sunday 21 Dec 2014 (Local Time) from KLCI Reporting Station
Overcast Overcast  
Wind Chill: 19°   Ceiling: 3800
Heat Index: 25°   Visibility: 10mi
Dew Point: 19°   Wind: 5mph
Humidity: 80%   Direction: 70°ENE
Pressure: 30.28"   Gusts: NA
Location:  43.44°N, 71.82°W
Report Text: KLCI 210915Z AUTO 07004KT 10SM FEW010 BKN038 OVC050 M04/M07 A3028 RMK AO1
Loading
Personal Weather Stations






























Interactive Weather Map New forecast layout! Learn more

10-Day Weather Forecast

Advertisements
Track Severe Weather on mobile